Map

Track Data

SID SEASON NUMBER BASIN SUBBASIN NAME ISO_TIME NATURE LAT LON WMO_WIND WMO_PRES WMO_AGENCY TRACK_TYPE DIST2LAND LANDFALL IFLAG USA_AGENCY USA_ATCF_ID USA_LAT USA_LON USA_RECORD USA_STATUS USA_WIND USA_PRES USA_SSHS USA_R34_NE USA_R34_SE USA_R34_SW USA_R34_NW USA_R50_NE USA_R50_SE USA_R50_SW USA_R50_NW USA_R64_NE USA_R64_SE USA_R64_SW USA_R64_NW USA_POCI USA_ROCI USA_RMW USA_EYE TOKYO_LAT TOKYO_LON TOKYO_GRADE TOKYO_WIND TOKYO_PRES TOKYO_R50_DIR TOKYO_R50_LONG TOKYO_R50_SHORT TOKYO_R30_DIR TOKYO_R30_LONG TOKYO_R30_SHORT TOKYO_LAND CMA_LAT CMA_LON CMA_CAT CMA_WIND CMA_PRES HKO_LAT HKO_LON HKO_CAT HKO_WIND HKO_PRES NEWDELHI_LAT NEWDELHI_LON NEWDELHI_GRADE NEWDELHI_WIND NEWDELHI_PRES NEWDELHI_CI NEWDELHI_DP NEWDELHI_POCI REUNION_LAT REUNION_LON REUNION_TYPE REUNION_WIND REUNION_PRES REUNION_TNUM REUNION_CI REUNION_RMW REUNION_R34_NE REUNION_R34_SE REUNION_R34_SW REUNION_R34_NW REUNION_R50_NE REUNION_R50_SE REUNION_R50_SW REUNION_R50_NW REUNION_R64_NE REUNION_R64_SE REUNION_R64_SW REUNION_R64_NW BOM_LAT BOM_LON BOM_TYPE BOM_WIND BOM_PRES BOM_TNUM BOM_CI BOM_RMW BOM_R34_NE BOM_R34_SE BOM_R34_SW BOM_R34_NW BOM_R50_NE BOM_R50_SE BOM_R50_SW BOM_R50_NW BOM_R64_NE BOM_R64_SE BOM_R64_SW BOM_R64_NW BOM_ROCI BOM_POCI BOM_EYE BOM_POS_METHOD BOM_PRES_METHOD NADI_LAT NADI_LON NADI_CAT NADI_WIND NADI_PRES WELLINGTON_LAT WELLINGTON_LON WELLINGTON_WIND WELLINGTON_PRES DS824_LAT DS824_LON DS824_STAGE DS824_WIND DS824_PRES TD9636_LAT TD9636_LON TD9636_STAGE TD9636_WIND TD9636_PRES TD9635_LAT TD9635_LON TD9635_WIND TD9635_PRES TD9635_ROCI NEUMANN_LAT NEUMANN_LON NEUMANN_CLASS NEUMANN_WIND NEUMANN_PRES MLC_LAT MLC_LON MLC_CLASS MLC_WIND MLC_PRES USA_GUST BOM_GUST BOM_GUST_PER REUNION_GUST REUNION_GUST_PER USA_SEAHGT USA_SEARAD_NE USA_SEARAD_SE USA_SEARAD_SW USA_SEARAD_NW STORM_SPEED STORM_DIR
1877249N20088 1877 26 NI BB NOT_NAMED 1877-09-06 00:00:00 TS 19.9000 87.5000 main 94 85 _________O____ -1 19.9000 87.5000 TC 30 2 295
1877249N20088 1877 26 NI BB NOT_NAMED 1877-09-06 03:00:00 TS 19.9333 87.4250 main 85 80 _________PO___ -1 19.9500 87.3875 TC 30 19.9000 87.5000 1 2 300
1877249N20088 1877 26 NI BB NOT_NAMED 1877-09-06 06:00:00 TS 19.9825 87.3488 main 71 71 _________OP___ -1 20.0000 87.3000 TC 30 19.9563 87.4220 1 2 309
1877249N20088 1877 26 NI BB NOT_NAMED 1877-09-06 09:00:00 TS 20.0329 87.2908 main 71 56 _________PP___ -1 20.0500 87.2500 TC 30 20.0100 87.3452 1 1 313
1877249N20088 1877 26 NI BB NOT_NAMED 1877-09-06 12:00:00 TS 20.0794 87.2354 main 56 56 _________OP___ -1 20.1000 87.2000 TC 30 20.0588 87.2708 1 2 304
1877249N20088 1877 26 NI BB NOT_NAMED 1877-09-06 15:00:00 TS 20.1213 87.1500 main 56 43 _________PO___ -1 20.1425 87.1000 TC 30 20.1000 87.2000 1 2 299
1877249N20088 1877 26 NI BB NOT_NAMED 1877-09-06 18:00:00 TS 20.1676 87.0665 main 43 33 _________OP___ -1 20.2000 87.0000 TC 30 20.1353 87.1329 1 2 309
1877249N20088 1877 26 NI BB NOT_NAMED 1877-09-06 21:00:00 TS 20.2262 87.0110 main 33 20 _________PP___ -1 20.2700 86.9574 TC 30 20.1824 87.0647 1 2 326
1877249N20088 1877 26 NI BB NOT_NAMED 1877-09-07 00:00:00 TS 20.3317 86.9445 main 20 0 _________OP___ -1 20.4000 86.9000 TC 30 20.2634 86.9891 1 3 329
1877249N20088 1877 26 NI BB NOT_NAMED 1877-09-07 03:00:00 TS 20.5100 86.8288 main 0 0 _________PO___ -1 20.6200 86.7576 TC 30 20.4000 86.9000 1 5 331
1877249N20088 1877 26 NI BB NOT_NAMED 1877-09-07 06:00:00 TS 20.7527 86.6927 main 0 0 _________OP___ -1 20.9000 86.6000 TC 30 20.6054 86.7854 1 6 335
1877249N20088 1877 26 NI BB NOT_NAMED 1877-09-07 09:00:00 TS 21.0263 86.5750 main 0 0 _________PP___ -1 21.1850 86.4924 TC 30 20.8676 86.6577 1 6 340
1877249N20088 1877 26 NI BB NOT_NAMED 1877-09-07 12:00:00 TS 21.3355 86.4630 main 0 0 _________OP___ -1 21.5000 86.4000 TC 30 21.1710 86.5260 1 7 342
1877249N20088 1877 26 NI BB NOT_NAMED 1877-09-07 15:00:00 TS 21.6712 86.3500 main 0 0 _________PO___ -1 21.8425 86.3000 TC 30 21.5000 86.4000 1 7 343
1877249N20088 1877 26 NI BB NOT_NAMED 1877-09-07 18:00:00 TS 22.0244 86.2424 main 0 0 _________OP___ -1 22.2000 86.2000 TC 30 21.8487 86.2848 1 8 345
1877249N20088 1877 26 NI BB NOT_NAMED 1877-09-07 21:00:00 TS 22.3937 86.1351 main 0 0 _________PP___ -1 22.5725 86.0925 TC 30 22.2150 86.1776 1 7 346
1877249N20088 1877 26 NI BB NOT_NAMED 1877-09-08 00:00:00 TS 22.7369 86.0408 main 0 0 _________OP___ -1 22.9000 86.0000 TC 30 22.5737 86.0817 1 6 346
1877249N20088 1877 26 NI BB NOT_NAMED 1877-09-08 03:00:00 TS 23.0075 85.9712 main 0 0 _________PO___ -1 23.1150 85.9424 TC 30 22.9000 86.0000 1 5 347
1877249N20088 1877 26 NI BB NOT_NAMED 1877-09-08 06:00:00 TS 23.2304 85.9177 main 0 0 _________OP___ -1 23.3000 85.9000 TC 30 23.1609 85.9353 1 5 347
1877249N20088 1877 26 NI BB NOT_NAMED 1877-09-08 09:00:00 TS 23.4612 85.8673 main 0 0 _________PP___ -1 23.5350 85.8500 TC 30 23.3874 85.8847 1 5 350
1877249N20088 1877 26 NI BB NOT_NAMED 1877-09-08 12:00:00 TS 23.6976 85.8208 main 0 0 _________OP___ -1 23.8000 85.8000 TC 30 23.5953 85.8417 1 5 350
1877249N20088 1877 26 NI BB NOT_NAMED 1877-09-08 15:00:00 TS 23.9575 85.7750 main 0 0 _________PO___ -1 24.1150 85.7500 TC 30 23.8000 85.8000 1 5 350
1877249N20088 1877 26 NI BB NOT_NAMED 1877-09-08 18:00:00 TS 24.2308 85.7210 main 0 0 _________OP___ -1 24.4000 85.7000 TC 30 24.0616 85.7420 1 5 348
1877249N20088 1877 26 NI BB NOT_NAMED 1877-09-08 21:00:00 TS 24.4563 85.6638 main 0 0 _________PP___ -1 24.5950 85.6425 TC 30 24.3175 85.6851 1 4 346
1877249N20088 1877 26 NI BB NOT_NAMED 1877-09-09 00:00:00 TS 24.6198 85.6179 main 0 0 _________OP___ -1 24.7000 85.6000 TC 30 24.5397 85.6357 1 3 346
1877249N20088 1877 26 NI BB NOT_NAMED 1877-09-09 03:00:00 TS 24.7113 85.5962 main 0 0 _________PO___ -1 24.7225 85.5925 TC 30 24.7000 85.6000 1 1 0
1877249N20088 1877 26 NI BB NOT_NAMED 1877-09-09 06:00:00 TS 24.7323 85.5928 main 0 0 _________OP___ -1 24.7000 85.6000 TC 30 24.7647 85.5855 1 0 0
1877249N20088 1877 26 NI BB NOT_NAMED 1877-09-09 09:00:00 TS 24.7337 85.5924 main 0 0 _________PP___ -1 24.7000 85.6000 TC 30 24.7675 85.5849 1 0 0
1877249N20088 1877 26 NI BB NOT_NAMED 1877-09-09 12:00:00 TS 24.7183 85.5959 main 0 0 _________OP___ -1 24.7000 85.6000 TC 30 24.7366 85.5918 1 0 149
1877249N20088 1877 26 NI BB NOT_NAMED 1877-09-09 15:00:00 TS 24.7000 85.6000 main 0 0 _________PO___ -1 24.7000 85.6000 TC 30 24.7000 85.6000 1 0 136
1877249N20088 1877 26 NI BB NOT_NAMED 1877-09-09 18:00:00 TS 24.6898 85.6000 main 0 0 _________OP___ -1 24.7000 85.6000 TC 30 24.6797 85.6000 1 0 0
1877249N20088 1877 26 NI BB NOT_NAMED 1877-09-09 21:00:00 TS 24.6738 85.6000 main 0 0 _________PP___ -1 24.6850 85.6000 TC 30 24.6625 85.6000 1 0 0
1877249N20088 1877 26 NI BB NOT_NAMED 1877-09-10 00:00:00 TS 24.6820 85.6000 main 0 0 _________OP___ -1 24.7000 85.6000 TC 30 24.6641 85.6000 1 1 18
1877249N20088 1877 26 NI BB NOT_NAMED 1877-09-10 03:00:00 TS 24.7388 85.6000 main 0 0 _________PO___ -1 24.7775 85.6000 TC 30 24.7000 85.6000 1 2 7
1877249N20088 1877 26 NI BB NOT_NAMED 1877-09-10 06:00:00 TS 24.8486 85.6000 main 0 0 _________OP___ -1 24.9000 85.6000 TC 30 24.7972 85.6000 1 3 0
1877249N20088 1877 26 NI BB NOT_NAMED 1877-09-10 09:00:00 TS 24.9925 85.6000 main 0 0 _________PP___ -1 25.0575 85.6000 TC 30 24.9275 85.6000 1 3 0
1877249N20088 1877 26 NI BB NOT_NAMED 1877-09-10 12:00:00 TS 25.1345 85.6000 main 0 0 _________OP___ -1 25.2000 85.6000 TC 30 25.0691 85.6000 1 2 6
1877249N20088 1877 26 NI BB NOT_NAMED 1877-09-10 15:00:00 TS 25.2287 85.6000 main 0 0 _________PO___ -1 25.2575 85.6000 TC 30 25.2000 85.6000 1 2 356
1877249N20088 1877 26 NI BB NOT_NAMED 1877-09-10 18:00:00 TS 25.3020 85.6000 main 0 0 _________OP___ -1 25.3000 85.6000 TC 30 25.3034 85.6000 1 2 0
1877249N20088 1877 26 NI BB NOT_NAMED 1877-09-10 21:00:00 TS 25.3835 85.6000 main 0 0 _________PP___ -1 25.3850 85.6000 TC 30 25.3825 85.6000 1 2 8
1877249N20088 1877 26 NI BB NOT_NAMED 1877-09-11 00:00:00 TS 25.4635 85.6000 main 0 0 _________OP___ -1 25.5000 85.6000 TC 30 25.4453 85.6000 1 1 11
1877249N20088 1877 26 NI BB NOT_NAMED 1877-09-11 03:00:00 NR 25.5000 85.6000 main 0 __________O___ -1 TC 25.5000 85.6000 1 1 23

About IBTrACS Database

This database is a web-friendly format of International Best Track Archive for Climate Stewardship (IBTrACS), a global best track data archive curated by NOAA dating back to 1842.

Updated: 2021-12-03